createdAt,value
2017-09-25T00:00:05.825Z,14.90
2017-09-25T00:02:33.433Z,14.90
2017-09-25T00:05:01.767Z,15.00
2017-09-25T00:07:29.381Z,15.00
2017-09-25T00:09:57.724Z,14.60
2017-09-25T00:12:25.300Z,14.60
2017-09-25T00:14:52.907Z,14.80
2017-09-25T00:17:20.483Z,15.00
2017-09-25T00:19:48.046Z,15.00
2017-09-25T00:22:15.679Z,14.90
2017-09-25T00:24:43.253Z,15.00
2017-09-25T00:27:10.826Z,15.00
2017-09-25T00:29:38.448Z,14.90
2017-09-25T00:32:06.073Z,14.90
2017-09-25T00:34:33.633Z,14.40
2017-09-25T00:37:01.245Z,14.30
2017-09-25T00:39:28.811Z,14.10
2017-09-25T00:41:56.418Z,13.60
2017-09-25T00:44:23.998Z,14.20
2017-09-25T00:46:51.609Z,14.10
2017-09-25T00:49:19.199Z,14.50
2017-09-25T00:51:46.821Z,14.40
2017-09-25T00:54:14.430Z,14.50
2017-09-25T00:56:42.005Z,14.60
2017-09-25T00:59:21.540Z,14.30
2017-09-25T01:02:01.043Z,14.40
2017-09-25T01:04:40.265Z,14.70
2017-09-25T01:07:07.913Z,14.60
2017-09-25T01:09:35.479Z,14.60
2017-09-25T01:12:03.047Z,14.50
2017-09-25T01:14:30.662Z,14.20
2017-09-25T01:16:58.278Z,14.30
2017-09-25T01:19:25.850Z,14.20
2017-09-25T01:21:53.426Z,14.20
2017-09-25T01:24:21.041Z,14.20
2017-09-25T01:26:48.611Z,14.30
2017-09-25T01:29:16.182Z,14.30
2017-09-25T01:31:43.788Z,14.00
2017-09-25T01:34:11.399Z,13.90
2017-09-25T01:36:38.978Z,13.80
2017-09-25T01:39:06.609Z,14.00
2017-09-25T01:41:34.206Z,13.60
2017-09-25T01:44:01.766Z,13.60
2017-09-25T01:46:29.387Z,13.90
2017-09-25T01:48:57.710Z,13.50
2017-09-25T01:51:25.339Z,13.50
2017-09-25T01:53:52.902Z,13.60
2017-09-25T01:56:20.471Z,13.60
2017-09-25T01:58:48.084Z,13.90
2017-09-25T02:01:15.673Z,13.60
2017-09-25T02:03:43.274Z,13.70
2017-09-25T02:06:10.845Z,13.70
2017-09-25T02:08:38.449Z,13.70
2017-09-25T02:11:06.038Z,13.80
2017-09-25T02:13:33.608Z,13.70
2017-09-25T02:16:01.211Z,13.40
2017-09-25T02:18:28.851Z,13.70
2017-09-25T02:20:56.402Z,13.90
2017-09-25T02:23:24.002Z,13.70
2017-09-25T02:25:52.371Z,13.50
2017-09-25T02:28:19.931Z,13.50
2017-09-25T02:30:47.558Z,13.70
2017-09-25T02:33:15.123Z,13.50
2017-09-25T02:35:42.710Z,13.60
2017-09-25T02:38:10.318Z,13.30
2017-09-25T02:40:37.927Z,13.40
2017-09-25T02:43:05.551Z,13.70
2017-09-25T02:45:33.126Z,13.80
2017-09-25T02:48:00.723Z,13.70
2017-09-25T02:50:28.346Z,13.50
2017-09-25T02:52:55.921Z,13.20
2017-09-25T02:55:23.491Z,13.20
2017-09-25T02:57:51.104Z,13.00
2017-09-25T03:00:18.721Z,13.30
2017-09-25T03:02:46.308Z,13.60
2017-09-25T03:05:14.656Z,13.70
2017-09-25T03:07:42.272Z,13.70
2017-09-25T03:10:09.836Z,13.50
2017-09-25T03:12:37.459Z,13.20
2017-09-25T03:15:05.022Z,13.40
2017-09-25T03:17:32.599Z,12.90
2017-09-25T03:20:00.965Z,13.00
2017-09-25T03:22:28.535Z,13.00
2017-09-25T03:24:56.904Z,13.40
2017-09-25T03:27:24.575Z,13.40
2017-09-25T03:29:52.906Z,13.40
2017-09-25T03:32:20.470Z,13.40
2017-09-25T03:34:48.083Z,13.50
2017-09-25T03:37:15.700Z,13.60
2017-09-25T03:39:43.285Z,13.20
2017-09-25T03:42:10.862Z,12.80
2017-09-25T03:44:39.306Z,12.70
2017-09-25T03:47:06.865Z,12.70
2017-09-25T03:49:34.424Z,12.90
2017-09-25T03:52:02.042Z,13.20
2017-09-25T03:54:29.647Z,13.30
2017-09-25T03:56:57.249Z,13.20
2017-09-25T03:59:25.582Z,13.40
2017-09-25T04:01:53.181Z,13.40
2017-09-25T04:04:21.527Z,13.20
2017-09-25T04:06:49.139Z,13.10
2017-09-25T04:09:17.471Z,13.20
2017-09-25T04:11:45.037Z,13.20
2017-09-25T04:14:12.647Z,13.20
2017-09-25T04:16:40.220Z,13.20
2017-09-25T04:19:07.832Z,13.20
2017-09-25T04:21:35.470Z,13.20
2017-09-25T04:24:03.066Z,13.30
2017-09-25T04:26:31.402Z,13.20
2017-09-25T04:28:59.313Z,13.20
2017-09-25T04:31:27.712Z,12.60
2017-09-25T04:33:55.295Z,12.60
2017-09-25T04:36:22.875Z,12.60
2017-09-25T04:38:50.484Z,12.60
2017-09-25T04:41:18.827Z,12.60
2017-09-25T04:43:46.440Z,12.60
2017-09-25T04:46:14.801Z,12.90
2017-09-25T04:48:43.206Z,12.50
2017-09-25T04:51:10.811Z,12.50
2017-09-25T04:53:38.393Z,12.60
2017-09-25T04:56:05.993Z,12.80
2017-09-25T04:58:33.582Z,12.70
2017-09-25T05:01:02.020Z,12.80
2017-09-25T05:03:30.387Z,12.90
2017-09-25T05:05:58.754Z,12.90
2017-09-25T05:08:26.333Z,12.90
2017-09-25T05:10:54.701Z,12.80
2017-09-25T05:13:23.048Z,12.70
2017-09-25T05:15:50.696Z,12.70
2017-09-25T05:18:18.266Z,12.80
2017-09-25T05:20:45.826Z,12.90
2017-09-25T05:23:13.540Z,12.60
2017-09-25T05:25:41.883Z,12.60
2017-09-25T05:28:09.455Z,12.50
2017-09-25T05:30:37.117Z,12.50
2017-09-25T05:33:04.675Z,12.30
2017-09-25T05:35:32.298Z,12.00
2017-09-25T05:38:00.630Z,12.50
2017-09-25T05:40:28.992Z,12.70
2017-09-25T05:42:56.598Z,12.60
2017-09-25T05:45:24.186Z,12.70
2017-09-25T05:47:51.746Z,12.70
2017-09-25T05:50:19.350Z,12.50
2017-09-25T05:52:46.954Z,12.60
2017-09-25T05:55:14.631Z,12.60
2017-09-25T05:57:43.088Z,12.80
2017-09-25T06:00:10.745Z,12.70
2017-09-25T06:02:39.686Z,12.80
2017-09-25T06:05:08.114Z,12.80
2017-09-25T06:07:36.462Z,12.80
2017-09-25T06:10:04.074Z,12.80
2017-09-25T06:12:31.678Z,12.80
2017-09-25T06:14:59.246Z,12.80
2017-09-25T06:17:26.845Z,12.90
2017-09-25T06:19:55.171Z,12.20
2017-09-25T06:22:22.761Z,12.20
2017-09-25T06:24:51.187Z,12.10
2017-09-25T06:27:18.770Z,12.10
2017-09-25T06:29:46.339Z,12.10
2017-09-25T06:32:13.955Z,12.40
2017-09-25T06:34:41.537Z,12.60
2017-09-25T06:37:09.185Z,12.60
2017-09-25T06:39:38.143Z,12.40
2017-09-25T06:42:06.611Z,12.30
2017-09-25T06:44:34.257Z,12.30
2017-09-25T06:47:01.825Z,11.40
2017-09-25T06:49:29.443Z,11.40
2017-09-25T06:51:57.031Z,11.90
2017-09-25T06:54:24.626Z,12.30
2017-09-25T06:56:52.218Z,12.20
2017-09-25T06:59:19.834Z,12.10
2017-09-25T07:01:47.454Z,12.20
2017-09-25T07:04:15.132Z,11.70
2017-09-25T07:06:42.712Z,12.30
2017-09-25T07:09:10.337Z,12.10
2017-09-25T07:11:37.890Z,12.60
2017-09-25T07:14:05.648Z,12.70
2017-09-25T07:16:33.368Z,12.90
2017-09-25T07:19:01.335Z,12.80
2017-09-25T07:21:29.845Z,13.10
2017-09-25T07:23:58.204Z,13.10
2017-09-25T07:26:25.831Z,13.10
2017-09-25T07:28:53.418Z,13.10
2017-09-25T07:31:20.997Z,13.20
2017-09-25T07:33:48.623Z,13.10
2017-09-25T07:36:16.206Z,13.10
2017-09-25T07:38:43.984Z,13.20
2017-09-25T07:41:11.554Z,13.30
2017-09-25T07:43:39.153Z,13.40
2017-09-25T07:46:06.769Z,13.50
2017-09-25T07:48:34.352Z,13.60
2017-09-25T07:51:02.744Z,13.60
2017-09-25T07:53:30.706Z,13.60
2017-09-25T07:55:58.323Z,13.50
2017-09-25T07:58:25.938Z,13.20
2017-09-25T08:00:53.601Z,13.30
2017-09-25T08:03:21.274Z,13.60
2017-09-25T08:05:48.912Z,13.60
2017-09-25T08:08:16.517Z,13.80
2017-09-25T08:10:44.087Z,13.80
2017-09-25T08:13:11.691Z,13.90
2017-09-25T08:15:40.082Z,14.10
2017-09-25T08:18:08.425Z,14.20
2017-09-25T08:20:36.005Z,14.10
2017-09-25T08:23:04.415Z,14.40
2017-09-25T08:25:32.025Z,14.40
2017-09-25T08:27:59.666Z,14.80
2017-09-25T08:30:27.274Z,15.30
2017-09-25T08:32:54.923Z,15.80
2017-09-25T08:35:22.550Z,16.30
2017-09-25T08:37:50.142Z,16.60
2017-09-25T08:40:18.566Z,17.50
2017-09-25T08:42:46.135Z,17.50
2017-09-25T08:45:13.735Z,17.60
2017-09-25T08:47:41.313Z,17.50
2017-09-25T08:50:09.746Z,18.30
2017-09-25T08:52:37.314Z,18.30
2017-09-25T08:55:05.663Z,18.30
2017-09-25T08:57:34.482Z,18.20
2017-09-25T09:00:03.812Z,18.50
2017-09-25T09:02:33.021Z,19.10
2017-09-25T09:05:01.273Z,19.70
2017-09-25T09:07:29.673Z,20.10
2017-09-25T09:09:57.278Z,20.10
2017-09-25T09:12:24.929Z,20.70
2017-09-25T09:15:03.923Z,21.10
2017-09-25T09:17:32.351Z,21.30
2017-09-25T09:19:59.987Z,21.30
2017-09-25T09:22:29.434Z,21.60
2017-09-25T09:24:57.067Z,21.50
2017-09-25T09:27:25.418Z,22.50
2017-09-25T09:29:52.973Z,22.60
2017-09-25T09:32:20.712Z,23.70
2017-09-25T09:34:48.287Z,23.70
2017-09-25T09:37:17.735Z,24.00
2017-09-25T09:39:49.102Z,23.30
2017-09-25T09:42:18.106Z,23.20
2017-09-25T09:44:45.782Z,23.50
2017-09-25T09:47:24.894Z,24.30
2017-09-25T09:49:52.481Z,24.30
2017-09-25T09:52:20.190Z,25.60
2017-09-25T09:54:47.881Z,26.00
2017-09-25T09:57:18.638Z,25.20
2017-09-25T09:59:46.299Z,25.80
2017-09-25T10:02:13.909Z,26.10
2017-09-25T10:04:41.483Z,26.80
2017-09-25T10:07:09.894Z,25.80
2017-09-25T10:09:37.463Z,25.80
2017-09-25T10:12:05.023Z,25.90
2017-09-25T10:14:32.639Z,25.50
2017-09-25T10:17:00.272Z,25.40
2017-09-25T10:19:27.834Z,25.70
2017-09-25T10:21:55.499Z,26.40
2017-09-25T10:24:27.099Z,27.20
2017-09-25T10:26:54.724Z,27.00
2017-09-25T10:29:22.304Z,26.00
2017-09-25T10:31:50.657Z,26.70
2017-09-25T10:34:18.327Z,26.70
2017-09-25T10:36:45.905Z,26.30
2017-09-25T10:39:14.358Z,27.90
2017-09-25T10:41:41.986Z,27.90
2017-09-25T10:44:09.581Z,28.50
2017-09-25T10:46:37.189Z,29.50
2017-09-25T10:49:04.800Z,29.30
2017-09-25T10:51:32.413Z,29.20
2017-09-25T10:54:00.071Z,29.40
2017-09-25T10:56:28.503Z,28.10
2017-09-25T10:58:56.125Z,28.10
2017-09-25T11:01:23.797Z,28.00
2017-09-25T11:03:51.439Z,27.80
2017-09-25T11:06:19.711Z,27.30
2017-09-25T11:08:48.354Z,26.00
2017-09-25T11:11:16.084Z,26.00
2017-09-25T11:13:43.699Z,26.00
2017-09-25T11:16:11.262Z,26.30
2017-09-25T11:18:38.850Z,26.00
2017-09-25T11:21:07.237Z,24.60
2017-09-25T11:23:34.867Z,24.60
2017-09-25T11:26:02.435Z,24.90
2017-09-25T11:28:30.083Z,24.70
2017-09-25T11:30:57.673Z,25.20
2017-09-25T11:33:26.000Z,26.10
2017-09-25T11:35:53.722Z,26.10
2017-09-25T11:38:21.633Z,26.00
2017-09-25T11:40:49.239Z,26.20
2017-09-25T11:43:18.431Z,28.20
2017-09-25T11:45:46.769Z,28.30
2017-09-25T11:48:14.433Z,28.20
2017-09-25T11:50:42.033Z,29.30
2017-09-25T11:53:09.592Z,29.50
2017-09-25T11:55:37.224Z,29.60
2017-09-25T11:58:04.833Z,30.10
2017-09-25T12:00:33.274Z,29.60
2017-09-25T12:03:00.913Z,29.50
2017-09-25T12:05:28.547Z,29.70
2017-09-25T12:07:56.115Z,30.40
2017-09-25T12:10:23.709Z,30.40
2017-09-25T12:12:51.321Z,30.80
2017-09-25T12:15:19.655Z,30.20
2017-09-25T12:17:47.259Z,30.20
2017-09-25T12:20:15.602Z,30.80
2017-09-25T12:22:43.286Z,30.80
2017-09-25T12:25:10.890Z,29.90
2017-09-25T12:27:38.538Z,30.20
2017-09-25T12:30:06.110Z,30.10
2017-09-25T12:32:33.719Z,31.50
2017-09-25T12:35:01.334Z,31.10
2017-09-25T12:37:28.942Z,31.30
2017-09-25T12:39:56.549Z,30.30
2017-09-25T12:42:24.197Z,30.30
2017-09-25T12:44:51.874Z,30.00
2017-09-25T12:47:19.487Z,31.30
2017-09-25T12:49:47.102Z,30.90
2017-09-25T12:52:14.717Z,30.20
2017-09-25T12:54:42.368Z,30.40
2017-09-25T12:57:09.952Z,29.30
2017-09-25T12:59:37.617Z,30.10
2017-09-25T13:02:05.985Z,29.00
2017-09-25T13:04:33.625Z,28.90
2017-09-25T13:07:01.274Z,29.10
2017-09-25T13:09:28.868Z,29.10
2017-09-25T13:11:56.480Z,28.20
2017-09-25T13:14:24.118Z,27.60
2017-09-25T13:16:52.528Z,26.20
2017-09-25T13:19:20.102Z,26.20
2017-09-25T13:21:47.678Z,25.80
2017-09-25T13:24:15.303Z,25.80
2017-09-25T13:26:43.038Z,25.60
2017-09-25T13:29:11.472Z,26.60
2017-09-25T13:31:39.058Z,26.50
2017-09-25T13:34:08.450Z,26.90
2017-09-25T13:36:36.272Z,27.30
2017-09-25T13:39:04.100Z,27.20
2017-09-25T13:41:31.728Z,26.20
2017-09-25T13:43:59.295Z,26.80
2017-09-25T13:46:26.862Z,26.60
2017-09-25T13:48:54.470Z,26.40
2017-09-25T13:51:22.811Z,25.10
2017-09-25T13:53:50.459Z,25.10
2017-09-25T13:56:18.033Z,25.70
2017-09-25T14:03:51.560Z,25.60
2017-09-25T14:06:19.188Z,25.40
2017-09-25T14:08:46.763Z,25.80
2017-09-25T14:11:14.357Z,26.30
2017-09-25T14:13:41.972Z,25.90
2017-09-25T14:16:09.569Z,25.50
2017-09-25T14:18:37.207Z,25.80
2017-09-25T14:21:04.840Z,26.00
2017-09-25T14:23:32.443Z,26.10
2017-09-25T14:26:00.064Z,25.50
2017-09-25T14:28:27.665Z,25.50
2017-09-25T14:30:55.331Z,25.70
2017-09-25T14:33:27.010Z,25.40
2017-09-25T14:35:54.573Z,25.10
2017-09-25T14:38:22.758Z,25.30
2017-09-25T14:40:50.337Z,25.40
2017-09-25T14:43:17.941Z,25.50
2017-09-25T14:45:45.553Z,25.60
2017-09-25T14:48:13.277Z,25.70
2017-09-25T14:50:40.903Z,25.10
2017-09-25T14:53:08.528Z,25.40
2017-09-25T14:55:36.091Z,25.40
2017-09-25T14:58:03.721Z,25.50
2017-09-25T15:00:31.334Z,25.40
2017-09-25T15:02:59.283Z,25.40
2017-09-25T15:05:27.667Z,25.20
2017-09-25T15:07:56.042Z,25.30
2017-09-25T15:10:23.739Z,25.30
2017-09-25T15:12:51.297Z,25.20
2017-09-25T15:15:18.907Z,25.10
2017-09-25T15:17:46.522Z,25.30
2017-09-25T15:20:14.148Z,24.70
2017-09-25T15:22:41.780Z,24.50
2017-09-25T15:25:11.043Z,24.60
2017-09-25T15:27:39.378Z,24.70
2017-09-25T15:30:18.747Z,24.70
2017-09-25T15:32:47.200Z,24.70
2017-09-25T15:35:22.271Z,24.70
2017-09-25T15:37:50.661Z,24.60
2017-09-25T15:40:18.305Z,24.60
2017-09-25T15:42:46.654Z,24.10
2017-09-25T15:45:14.382Z,24.10
2017-09-25T15:47:42.039Z,24.30
2017-09-25T15:50:09.661Z,24.30
2017-09-25T15:52:37.287Z,24.60
2017-09-25T15:55:04.926Z,24.70
2017-09-25T15:57:32.512Z,24.50
2017-09-25T16:00:00.142Z,24.30
2017-09-25T16:02:27.760Z,24.30
2017-09-25T16:04:55.431Z,24.30
2017-09-25T16:07:23.028Z,24.00
2017-09-25T16:09:50.614Z,24.10
2017-09-25T16:12:18.259Z,24.00
2017-09-25T16:14:45.917Z,24.00
2017-09-25T16:17:13.534Z,24.10
2017-09-25T16:19:41.920Z,24.00
2017-09-25T16:22:09.496Z,23.90
2017-09-25T16:24:37.103Z,23.80
2017-09-25T16:27:04.716Z,23.80
2017-09-25T16:29:32.465Z,23.80
2017-09-25T16:32:00.109Z,23.90
2017-09-25T16:34:27.765Z,23.80
2017-09-25T16:36:55.393Z,23.50
2017-09-25T16:39:23.002Z,23.60
2017-09-25T16:41:50.641Z,23.60
2017-09-25T16:44:18.976Z,23.50
2017-09-25T16:46:46.574Z,23.50
2017-09-25T16:49:14.251Z,23.30
2017-09-25T16:51:41.851Z,23.10
2017-09-25T16:54:09.476Z,23.20
2017-09-25T16:56:37.087Z,23.10
2017-09-25T16:59:04.671Z,22.80
2017-09-25T17:01:32.302Z,22.80
2017-09-25T17:03:59.879Z,22.90
2017-09-25T17:06:28.227Z,22.80
2017-09-25T17:08:56.680Z,22.80
2017-09-25T17:11:25.033Z,22.80
2017-09-25T17:13:52.662Z,22.80
2017-09-25T17:16:21.104Z,22.70
2017-09-25T17:18:48.695Z,22.70
2017-09-25T17:21:16.350Z,22.50
2017-09-25T17:23:43.923Z,22.40
2017-09-25T17:26:11.523Z,22.40
2017-09-25T17:28:39.224Z,22.30
2017-09-25T17:31:06.791Z,22.30
2017-09-25T17:33:34.415Z,22.30
2017-09-25T17:36:02.031Z,22.20
2017-09-25T17:38:30.443Z,22.20
2017-09-25T17:40:58.031Z,22.20
2017-09-25T17:43:25.605Z,22.20
2017-09-25T17:45:53.221Z,22.10
2017-09-25T17:48:20.835Z,22.10
2017-09-25T17:50:48.480Z,22.10
2017-09-25T17:53:16.101Z,22.10
2017-09-25T17:55:44.500Z,21.90
2017-09-25T17:58:12.080Z,21.90
2017-09-25T18:00:39.696Z,21.90
2017-09-25T18:03:08.089Z,21.70
2017-09-25T18:05:35.725Z,21.70
2017-09-25T18:08:03.303Z,21.50
2017-09-25T18:10:31.725Z,21.00
2017-09-25T18:12:59.342Z,21.00
2017-09-25T18:15:27.695Z,21.30
2017-09-25T18:17:55.316Z,21.30
2017-09-25T18:20:22.904Z,20.80
2017-09-25T18:22:50.519Z,20.50
2017-09-25T18:25:18.865Z,21.10
2017-09-25T18:27:46.474Z,21.10
2017-09-25T18:30:14.084Z,21.20
2017-09-25T18:32:41.660Z,20.10
2017-09-25T18:35:09.288Z,19.80
2017-09-25T18:37:36.939Z,19.60
2017-09-25T18:40:04.584Z,19.40
2017-09-25T18:42:32.243Z,19.30
2017-09-25T18:44:59.813Z,19.40
2017-09-25T18:47:27.434Z,19.20
2017-09-25T18:49:55.003Z,19.40
2017-09-25T18:52:23.338Z,19.00
2017-09-25T18:54:50.961Z,19.00
2017-09-25T18:57:18.600Z,19.40
2017-09-25T18:59:46.219Z,19.40
2017-09-25T19:02:13.800Z,19.80
2017-09-25T19:04:41.421Z,19.60
2017-09-25T19:07:09.038Z,19.20
2017-09-25T19:09:36.621Z,19.00
2017-09-25T19:12:04.250Z,19.30
2017-09-25T19:14:31.827Z,19.50
2017-09-25T19:17:00.199Z,19.30
2017-09-25T19:19:27.880Z,19.30
2017-09-25T19:21:56.253Z,19.60
2017-09-25T19:24:24.650Z,19.40
2017-09-25T19:26:52.287Z,19.40
2017-09-25T19:29:19.915Z,19.40
2017-09-25T19:31:47.522Z,19.10
2017-09-25T19:34:15.876Z,18.90
2017-09-25T19:36:43.494Z,19.00
2017-09-25T19:39:11.082Z,19.00
2017-09-25T19:41:38.763Z,18.40
2017-09-25T19:44:06.358Z,19.00
2017-09-25T19:46:34.749Z,19.40
2017-09-25T19:49:12.242Z,19.40
2017-09-25T19:51:39.863Z,19.70
2017-09-25T19:54:25.278Z,19.60
2017-09-25T19:57:02.838Z,19.40
2017-09-25T19:59:30.466Z,18.90
2017-09-25T20:01:58.082Z,19.00
2017-09-25T20:04:26.434Z,18.90
2017-09-25T20:06:54.102Z,18.90
2017-09-25T20:09:21.703Z,19.40
2017-09-25T20:11:54.007Z,19.10
2017-09-25T20:14:31.507Z,19.10
2017-09-25T20:17:19.974Z,19.10
2017-09-25T20:19:47.638Z,19.40
2017-09-25T20:22:15.226Z,19.40
2017-09-25T20:24:43.602Z,19.40
2017-09-25T20:27:11.979Z,19.50
2017-09-25T20:29:40.324Z,19.50
2017-09-25T20:32:07.965Z,19.50
2017-09-25T20:34:35.547Z,19.40
2017-09-25T20:37:03.135Z,19.40
2017-09-25T20:39:30.763Z,19.40
2017-09-25T20:42:09.166Z,19.40
2017-09-25T20:44:36.814Z,19.10
2017-09-25T20:47:04.404Z,18.90
2017-09-25T20:49:31.998Z,18.50
2017-09-25T20:51:59.643Z,18.60
2017-09-25T20:54:27.228Z,18.40
2017-09-25T20:56:55.668Z,18.90
2017-09-25T20:59:23.256Z,18.90
2017-09-25T21:01:50.852Z,18.60
2017-09-25T21:04:18.486Z,18.50
2017-09-25T21:06:46.146Z,18.10
2017-09-25T21:09:13.748Z,18.30
2017-09-25T21:11:41.364Z,18.10
2017-09-25T21:14:09.023Z,18.20
2017-09-25T21:16:36.651Z,18.40
2017-09-25T21:19:04.263Z,18.40
2017-09-25T21:21:31.909Z,18.30
2017-09-25T21:23:59.515Z,18.10
2017-09-25T21:26:29.650Z,18.10
2017-09-25T21:28:57.286Z,17.90
2017-09-25T21:31:25.671Z,18.00
2017-09-25T21:33:53.295Z,18.00
2017-09-25T21:36:20.944Z,18.00
2017-09-25T21:38:48.559Z,17.90
2017-09-25T21:41:16.135Z,17.90
2017-09-25T21:43:43.755Z,17.60
2017-09-25T21:46:12.224Z,17.80
2017-09-25T21:48:39.850Z,17.60
2017-09-25T21:51:07.428Z,17.40
2017-09-25T21:53:35.085Z,17.50
2017-09-25T21:56:02.669Z,17.60
2017-09-25T21:58:30.250Z,17.40
2017-09-25T22:00:57.892Z,17.20
2017-09-25T22:03:25.473Z,17.60
2017-09-25T22:05:53.072Z,17.50
2017-09-25T22:08:20.689Z,17.30
2017-09-25T22:10:48.278Z,17.40
2017-09-25T22:13:16.657Z,17.30
2017-09-25T22:15:44.995Z,17.20
2017-09-25T22:18:12.652Z,17.10
2017-09-25T22:20:40.222Z,17.20
2017-09-25T22:23:07.811Z,17.10
2017-09-25T22:25:36.216Z,17.20
2017-09-25T22:28:03.796Z,17.20
2017-09-25T22:30:31.388Z,16.80
2017-09-25T22:32:59.035Z,16.80
2017-09-25T22:35:26.660Z,17.10
2017-09-25T22:37:54.247Z,17.40
2017-09-25T22:40:21.876Z,17.60
2017-09-25T22:42:51.994Z,17.60
2017-09-25T22:45:20.338Z,17.50
2017-09-25T22:47:47.944Z,17.50
2017-09-25T22:50:15.522Z,17.60
2017-09-25T22:52:43.133Z,17.60
2017-09-25T22:55:10.706Z,17.70
2017-09-25T22:57:39.101Z,17.10
2017-09-25T23:00:06.709Z,17.00
2017-09-25T23:02:34.337Z,16.60
2017-09-25T23:05:07.465Z,16.50
2017-09-25T23:07:35.108Z,16.90
2017-09-25T23:10:02.715Z,17.20
2017-09-25T23:12:30.306Z,17.30
2017-09-25T23:14:57.938Z,17.30
2017-09-25T23:17:25.547Z,17.30
2017-09-25T23:19:53.127Z,17.20
2017-09-25T23:22:20.763Z,17.20
2017-09-25T23:24:48.375Z,17.10
2017-09-25T23:27:15.956Z,16.80
2017-09-25T23:30:04.066Z,16.30
2017-09-25T23:32:31.654Z,16.20
2017-09-25T23:35:00.043Z,16.50
2017-09-25T23:37:28.418Z,16.10
2017-09-25T23:39:56.757Z,16.20
2017-09-25T23:42:24.372Z,16.20
2017-09-25T23:44:52.723Z,16.80
2017-09-25T23:47:20.334Z,16.80
2017-09-25T23:49:47.961Z,16.90
2017-09-25T23:52:16.299Z,16.90
2017-09-25T23:54:43.870Z,17.00
2017-09-25T23:57:11.522Z,17.00
2017-09-25T23:59:39.099Z,16.40
